Time;durP1;ratioP1;P1;durP2;ratioP2;P2;SDS_P1;SDS_P2;PMS_P1;PMS_P2;Temp;Humidity;BMP_temperature;BMP_pressure;BME280_temperature;BME280_humidity;BME280_pressure;Samples;Min_cycle;Max_cycle;Signal;HPM_P1;HPM_P2
2022/11/14 04:57:51;;;;;;;27.62;19.02;;;;;;;8.17;100.00;101616.97;5606907;31;78159;-54
2022/11/14 05:01:13;;;;;;;30.35;19.15;;;;;;;8.17;100.00;101616.97;5583980;32;34257;-55
2022/11/14 05:04:33;;;;;;;27.27;18.17;;;;;;;7.94;100.00;101604.44;5583826;31;35383;-55
2022/11/14 05:07:54;;;;;;;30.10;18.65;;;;;;;7.85;93.77;101613.84;5584045;31;34340;-55
2022/11/14 05:11:16;;;;;;;25.35;18.27;;;;;;;7.65;100.00;101621.34;5584014;32;34626;-55
2022/11/14 05:14:36;;;;;;;24.98;18.33;;;;;;;7.70;100.00;101608.94;5583781;31;34563;-55
2022/11/14 05:17:57;;;;;;;23.83;17.70;;;;;;;7.68;99.39;101607.53;5584047;31;34433;-55
2022/11/14 05:21:18;;;;;;;25.75;18.00;;;;;;;7.90;100.00;101603.28;5583978;31;34453;-56
2022/11/14 05:24:38;;;;;;;25.48;18.92;;;;;;;7.61;97.74;101609.50;5583894;32;35368;-55
2022/11/14 05:27:58;;;;;;;25.25;17.62;;;;;;;7.50;89.28;101609.28;5583943;31;34413;-56
2022/11/14 05:31:19;;;;;;;22.85;17.10;;;;;;;7.42;90.27;101608.81;5583786;31;34531;-56
2022/11/14 05:34:40;;;;;;;22.60;17.05;;;;;;;7.38;91.24;101610.28;5583754;31;34643;-55
2022/11/14 05:38:01;;;;;;;22.98;17.55;;;;;;;7.28;93.96;101608.16;5583686;31;34429;-55
2022/11/14 05:41:21;;;;;;;23.62;18.25;;;;;;;7.46;100.00;101610.78;5583865;32;34436;-55
2022/11/14 05:44:42;;;;;;;25.15;18.25;;;;;;;7.33;96.76;101610.97;5573482;32;34536;-55
2022/11/14 05:48:04;;;;;;;28.70;17.98;;;;;;;7.30;98.77;101612.25;5568325;31;35374;-55
2022/11/14 05:51:25;;;;;;;26.60;18.95;;;;;;;7.48;100.00;101614.03;5565638;32;34468;-56
2022/11/14 05:54:45;;;;;;;24.98;18.48;;;;;;;7.75;100.00;101603.75;5577955;31;34294;-56
2022/11/14 05:58:06;;;;;;;24.10;17.52;;;;;;;7.96;100.00;101605.03;5544106;32;34396;-55
2022/11/14 06:01:26;;;;;;;23.92;18.58;;;;;;;7.96;96.87;101602.34;5542398;32;35385;-56
2022/11/14 06:04:47;;;;;;;23.42;17.62;;;;;;;7.98;97.94;101602.94;5543040;32;34554;-56
2022/11/14 06:08:07;;;;;;;28.23;17.67;;;;;;;7.70;91.98;101611.62;5533800;32;34574;-56
2022/11/14 06:11:28;;;;;;;29.70;18.40;;;;;;;7.86;97.33;101618.12;5530565;32;35407;-55
2022/11/14 06:14:48;;;;;;;24.48;17.80;;;;;;;7.62;93.32;101614.62;5530595;32;34560;-55
2022/11/14 06:18:09;;;;;;;26.55;17.87;;;;;;;7.73;100.00;101613.81;5531200;32;34421;-56
2022/11/14 06:21:29;;;;;;;25.15;17.33;;;;;;;7.98;100.00;101629.66;5527745;32;35410;-55
2022/11/14 06:24:50;;;;;;;26.52;17.98;;;;;;;8.03;100.00;101622.78;5528089;32;35349;-56
2022/11/14 06:28:11;;;;;;;27.58;17.23;;;;;;;8.19;96.63;101636.25;5528748;32;35370;-56
2022/11/14 06:31:31;;;;;;;24.80;17.12;;;;;;;8.17;92.30;101642.88;5528182;32;35380;-55
2022/11/14 06:34:52;;;;;;;24.92;17.05;;;;;;;8.06;100.00;101638.34;5526127;32;35077;-55
2022/11/14 06:38:13;;;;;;;31.65;16.67;;;;;;;8.03;96.28;101644.97;5528768;32;35228;-55
2022/11/14 06:41:33;;;;;;;23.80;19.27;;;;;;;8.15;92.26;101644.97;5529884;32;34556;-55
2022/11/14 06:44:53;;;;;;;27.62;19.92;;;;;;;7.98;89.91;101637.66;5528146;32;35357;-55
2022/11/14 06:48:14;;;;;;;26.27;18.10;;;;;;;8.17;87.99;101632.19;5528368;32;35324;-56
2022/11/14 06:51:34;;;;;;;23.30;18.60;;;;;;;8.31;92.89;101632.75;5528597;32;34535;-56
2022/11/14 06:54:54;;;;;;;30.35;20.75;;;;;;;8.47;96.47;101632.88;5529008;32;35331;-56
2022/11/14 06:58:15;;;;;;;25.75;18.12;;;;;;;8.34;87.69;101638.44;5559780;32;34576;-55
2022/11/14 07:01:36;;;;;;;21.85;17.10;;;;;;;8.46;97.54;101630.44;5566904;32;34468;-55
2022/11/14 07:04:57;;;;;;;28.17;18.37;;;;;;;8.59;98.75;101634.72;5566682;32;35411;-56
2022/11/14 07:08:18;;;;;;;26.58;19.12;;;;;;;8.47;99.41;101632.88;5568322;32;34461;-56
2022/11/14 07:11:41;;;;;;;26.92;18.12;;;;;;;8.57;96.35;101642.16;5568152;32;34437;-56
2022/11/14 07:15:01;;;;;;;35.38;18.08;;;;;;;8.64;87.08;101637.47;5567599;32;34511;-55
2022/11/14 07:18:22;;;;;;;26.73;19.40;;;;;;;8.72;98.33;101649.69;5566367;32;34291;-55
2022/11/14 07:21:43;;;;;;;22.98;17.75;;;;;;;8.79;95.21;101651.16;5565844;32;34411;-56
2022/11/14 07:25:04;;;;;;;27.27;18.20;;;;;;;8.86;92.92;101641.13;5565796;32;34618;-57
2022/11/14 07:28:25;;;;;;;27.37;19.40;;;;;;;8.88;100.00;101644.41;5565443;32;34825;-55
2022/11/14 07:31:45;;;;;;;24.65;18.98;;;;;;;9.00;91.39;101635.50;5568327;32;35402;-55
2022/11/14 07:35:06;;;;;;;28.33;18.77;;;;;;;9.20;100.00;101638.56;5564857;32;35131;-55
2022/11/14 07:38:29;;;;;;;26.83;19.48;;;;;;;9.08;94.10;101635.16;5567710;32;34364;-55
2022/11/14 07:41:50;;;;;;;25.92;19.42;;;;;;;9.22;94.38;101628.44;5566100;32;34065;-55
2022/11/14 07:45:11;;;;;;;29.25;18.83;;;;;;;9.21;94.45;101634.84;5568942;32;34538;-55
2022/11/14 07:48:32;;;;;;;26.98;18.87;;;;;;;9.26;91.38;101623.41;5567445;32;34216;-55
2022/11/14 07:51:53;;;;;;;28.48;20.73;;;;;;;9.59;97.48;101630.69;5568026;32;35303;-56
2022/11/14 07:55:13;;;;;;;24.73;18.85;;;;;;;9.65;92.60;101627.03;5567381;32;34483;-55
2022/11/14 07:58:35;;;;;;;28.20;18.73;;;;;;;9.58;91.70;101637.09;5566990;32;34229;-56
2022/11/14 08:01:56;;;;;;;30.10;19.50;;;;;;;9.81;98.83;101636.13;5566127;32;34537;-55
2022/11/14 08:05:17;;;;;;;31.98;18.73;;;;;;;9.50;86.83;101634.81;5558896;32;35310;-56
2022/11/14 08:08:38;;;;;;;24.98;19.95;;;;;;;9.76;99.65;101623.44;5564353;32;34490;-55
2022/11/14 08:11:58;;;;;;;27.67;20.10;;;;;;;9.79;93.41;101624.84;5560774;32;34522;-57
2022/11/14 08:15:19;;;;;;;28.02;20.17;;;;;;;9.94;93.49;101621.59;5563676;32;34549;-56
2022/11/14 08:18:40;;;;;;;30.48;20.70;;;;;;;10.00;99.82;101618.75;5567900;32;34401;-55
2022/11/14 08:22:01;;;;;;;34.55;22.10;;;;;;;10.09;91.02;101617.25;5567607;32;34466;-54
2022/11/14 08:25:21;;;;;;;30.25;20.77;;;;;;;9.95;82.72;101605.25;5566663;32;34074;-56
2022/11/14 08:28:42;;;;;;;26.60;19.80;;;;;;;10.11;88.37;101603.63;5567485;32;34104;-56
2022/11/14 08:32:02;;;;;;;31.52;20.65;;;;;;;10.24;91.30;101602.47;5566999;32;34595;-56
2022/11/14 08:35:23;;;;;;;29.75;21.35;;;;;;;9.93;87.86;101603.88;5562863;32;34618;-56
2022/11/14 08:38:44;;;;;;;27.48;19.12;;;;;;;9.91;84.38;101597.97;5566687;32;35294;-55
2022/11/14 08:42:04;;;;;;;27.13;20.85;;;;;;;10.23;99.26;101606.16;5557250;32;34554;-55
2022/11/14 08:45:25;;;;;;;30.42;21.05;;;;;;;10.31;89.94;101605.78;5565233;32;35344;-55
2022/11/14 08:48:45;;;;;;;28.02;21.75;;;;;;;10.34;83.03;101586.53;5560931;32;35463;-56
2022/11/14 08:52:06;;;;;;;28.52;20.77;;;;;;;10.20;84.37;101591.44;5554806;32;35346;-55
2022/11/14 08:55:30;;;;;;;33.63;20.65;;;;;;;10.30;88.67;101586.22;5563171;32;34519;-55
2022/11/14 08:58:51;;;;;;;35.33;20.85;;;;;;;10.57;90.79;101597.00;5562442;32;35353;-56
2022/11/14 09:02:12;;;;;;;37.25;23.25;;;;;;;10.42;87.69;101591.44;5564782;32;35377;-56
2022/11/14 09:05:34;;;;;;;28.80;20.40;;;;;;;10.57;84.59;101588.16;5566436;32;35403;-55
2022/11/14 09:08:54;;;;;;;26.75;19.37;;;;;;;10.69;89.74;101588.00;5566978;32;34548;-55
2022/11/14 09:12:16;;;;;;;27.35;19.40;;;;;;;10.80;91.79;101584.41;5565717;32;35348;-56
2022/11/14 09:15:37;;;;;;;29.00;20.80;;;;;;;10.85;94.83;101592.47;5564341;32;35359;-55
2022/11/14 09:18:57;;;;;;;26.90;19.83;;;;;;;11.04;99.11;101591.06;5565684;32;33060;-55
2022/11/14 09:22:18;;;;;;;32.88;22.23;;;;;;;11.01;96.91;101591.56;5567582;32;35396;-55
2022/11/14 09:25:38;;;;;;;29.92;21.52;;;;;;;11.01;89.90;101590.78;5566814;32;35343;-55
2022/11/14 09:29:00;;;;;;;32.28;22.48;;;;;;;11.03;83.68;101594.03;5564838;32;34485;-56
2022/11/14 09:32:21;;;;;;;29.63;22.52;;;;;;;11.14;87.61;101589.56;5563651;32;35387;-55
2022/11/14 09:35:42;;;;;;;26.65;19.55;;;;;;;11.01;83.35;101582.72;5563715;32;33892;-56
2022/11/14 09:39:02;;;;;;;31.12;21.45;;;;;;;11.08;88.17;101586.00;5561095;32;35050;-55
2022/11/14 09:42:26;;;;;;;28.80;20.83;;;;;;;11.24;82.02;101584.28;5564001;32;35426;-55
2022/11/14 09:45:50;;;;;;;28.60;20.92;;;;;;;11.22;82.25;101584.53;5567972;32;34530;-55
2022/11/14 09:49:24;;;;;;;31.12;23.15;;;;;;;11.34;90.28;101578.19;5554216;32;35294;-55
2022/11/14 09:52:51;;;;;;;29.00;22.30;;;;;;;11.16;79.43;101572.16;5568391;32;35295;-55
2022/11/14 09:56:25;;;;;;;30.52;20.37;;;;;;;11.22;85.83;101571.09;5567032;32;35381;-55
2022/11/14 09:59:46;;;;;;;36.15;23.02;;;;;;;11.24;90.40;101560.13;5565754;32;35391;-55
2022/11/14 10:03:19;;;;;;;31.95;23.08;;;;;;;11.18;84.10;101553.88;5560532;32;34964;-55
2022/11/14 10:07:37;;;;;;;27.87;20.45;;;;;;;11.06;81.81;101561.31;5564736;32;34444;-55
2022/11/14 10:11:14;;;;;;;30.55;21.33;;;;;;;11.31;92.53;101555.34;5527171;32;35340;-56
2022/11/14 10:15:00;;;;;;;31.33;23.35;;;;;;;11.41;87.51;101546.56;5543483;32;34566;-56
2022/11/14 10:18:57;;;;;;;28.85;22.20;;;;;;;11.56;82.95;101535.94;5564154;32;33336;-55
2022/11/14 10:22:18;;;;;;;31.10;21.80;;;;;;;11.69;86.62;101532.81;5564574;32;34687;-56
2022/11/14 10:25:59;;;;;;;30.27;23.02;;;;;;;11.82;91.60;101531.56;5563715;32;36323;-55
2022/11/14 10:29:28;;;;;;;32.15;21.98;;;;;;;11.74;80.51;101524.75;5560118;32;34568;-56
2022/11/14 10:32:55;;;;;;;30.05;20.88;;;;;;;11.58;78.72;101509.62;5566320;32;35396;-55
2022/11/14 10:36:37;;;;;;;32.38;23.10;;;;;;;11.63;85.78;101511.56;5550216;32;35406;-56
2022/11/14 10:40:32;;;;;;;30.02;21.95;;;;;;;11.64;81.12;101505.09;5566722;32;34491;-56
2022/11/14 10:43:54;;;;;;;31.37;22.08;;;;;;;11.80;84.77;101511.37;5563909;32;34520;-55
2022/11/14 10:47:18;;;;;;;29.12;22.27;;;;;;;11.81;87.45;101505.72;5567025;32;35469;-55
2022/11/14 10:50:50;;;;;;;31.25;22.98;;;;;;;11.81;85.03;101499.56;5567840;32;34371;-55
2022/11/14 10:54:23;;;;;;;30.00;22.13;;;;;;;11.92;81.97;101496.69;5567859;32;34313;-55
2022/11/14 10:57:44;;;;;;;32.78;23.65;;;;;;;11.95;85.67;101488.13;5564828;32;34521;-56
2022/11/14 11:01:36;;;;;;;30.58;22.35;;;;;;;11.93;80.70;101481.37;5559738;32;33294;-56
2022/11/14 11:05:12;;;;;;;31.90;24.70;;;;;;;11.94;89.82;101472.25;5564122;32;34507;-55
2022/11/14 11:12:22;;;;;;;27.67;21.42;;;;;;;11.94;83.33;101472.25;5565393;32;35403;-55
2022/11/14 11:15:44;;;;;;;33.20;23.02;;;;;;;12.21;84.64;101475.56;5559051;32;34576;-55
2022/11/14 11:19:24;;;;;;;30.30;22.23;;;;;;;12.12;81.83;101470.94;5565097;32;36404;-55
2022/11/14 11:22:45;;;;;;;35.63;22.95;;;;;;;12.42;92.20;101459.50;5549157;32;34549;-55
2022/11/14 11:26:15;;;;;;;32.35;21.27;;;;;;;12.40;82.08;101456.25;5564776;32;35332;-55
2022/11/14 11:29:35;;;;;;;30.88;22.60;;;;;;;12.32;86.70;101446.84;5566133;32;34519;-55
2022/11/14 11:33:12;;;;;;;41.08;23.87;;;;;;;12.33;84.61;101453.81;5566830;32;34342;-55
2022/11/14 11:36:44;;;;;;;33.72;24.35;;;;;;;12.26;81.73;101450.59;5565257;32;34607;-55
2022/11/14 11:40:11;;;;;;;28.92;21.48;;;;;;;12.38;82.27;101439.56;5564480;32;35391;-57
2022/11/14 11:44:05;;;;;;;29.90;23.40;;;;;;;12.34;84.05;101438.50;5574939;31;34514;-55
2022/11/14 11:47:34;;;;;;;31.65;23.35;;;;;;;12.34;78.57;101428.53;5577244;31;34570;-55
2022/11/14 11:50:55;;;;;;;29.67;22.83;;;;;;;12.41;78.55;101431.78;5568027;32;35340;-56
2022/11/14 11:54:19;;;;;;;31.05;23.85;;;;;;;12.45;77.42;101426.69;5567529;32;34729;-55
2022/11/14 11:58:02;;;;;;;32.17;22.90;;;;;;;12.46;77.58;101426.41;5567312;32;34184;-55
2022/11/14 12:01:23;;;;;;;29.12;22.27;;;;;;;12.55;82.03;101425.88;5566204;32;35470;-57
2022/11/14 12:04:44;;;;;;;30.33;23.30;;;;;;;12.70;77.94;101412.44;5567740;32;35398;-55
2022/11/14 12:08:30;;;;;;;28.87;22.27;;;;;;;12.69;78.91;101408.97;5568223;32;34626;-55
2022/11/14 12:11:56;;;;;;;32.40;22.95;;;;;;;12.76;76.98;101402.50;5567484;32;34104;-55
2022/11/14 12:15:25;;;;;;;27.42;21.35;;;;;;;12.78;77.91;101389.56;5566199;32;34460;-55
2022/11/14 12:19:16;;;;;;;30.67;22.80;;;;;;;12.84;80.32;101386.59;5568073;32;35430;-56
2022/11/14 12:23:11;;;;;;;28.15;21.30;;;;;;;12.82;81.11;101386.09;5565106;32;34511;-55
2022/11/14 12:27:05;;;;;;;26.62;21.10;;;;;;;12.83;78.00;101373.44;5560389;32;34576;-56
2022/11/14 12:30:27;;;;;;;29.00;18.70;;;;;;;12.80;78.55;101365.91;5568323;32;34508;-55
2022/11/14 12:34:01;;;;;;;23.17;17.02;;;;;;;12.83;75.37;101368.06;5562514;32;34606;-56
2022/11/14 12:37:37;;;;;;;25.50;17.10;;;;;;;13.02;86.55;101358.34;5560238;32;34604;-55
2022/11/14 12:41:00;;;;;;;23.33;16.42;;;;;;;13.08;78.27;101368.03;5564973;32;34526;-55
2022/11/14 12:44:27;;;;;;;21.48;16.70;;;;;;;13.28;81.30;101353.72;5557827;32;34475;-56
2022/11/14 12:48:26;;;;;;;20.92;15.93;;;;;;;13.19;72.33;101338.37;5559195;32;34567;-55
2022/11/14 12:51:48;;;;;;;20.75;16.50;;;;;;;13.26;76.23;101341.63;5555908;32;34528;-56
2022/11/14 12:55:21;;;;;;;21.23;16.70;;;;;;;13.26;76.34;101337.03;5559281;32;34480;-56
2022/11/14 12:58:51;;;;;;;21.23;16.85;;;;;;;13.21;73.91;101347.81;5560424;31;34535;-55
2022/11/14 13:02:53;;;;;;;24.08;18.12;;;;;;;13.18;72.64;101340.28;5548241;32;34593;-56
2022/11/14 13:06:25;;;;;;;24.40;17.95;;;;;;;13.26;76.81;101331.66;5564770;32;34520;-55
2022/11/14 13:10:13;;;;;;;20.70;16.35;;;;;;;13.22;73.42;101332.44;5555105;32;35488;-56
2022/11/14 13:25:16;;;;;;;15.57;11.90;;;;;;;13.46;70.66;101325.37;5559202;31;35545;-55
2022/11/14 13:28:37;;;;;;;17.80;12.02;;;;;;;13.43;74.15;101325.13;5567064;32;34419;-55
2022/11/14 13:31:58;;;;;;;17.08;12.98;;;;;;;13.39;71.99;101324.87;5566429;32;35500;-55
2022/11/14 13:35:31;;;;;;;18.77;12.80;;;;;;;13.33;73.14;101324.06;5567753;32;34506;-55
2022/11/14 13:39:06;;;;;;;20.52;13.80;;;;;;;13.22;71.34;101311.72;5567865;32;34537;-55
2022/11/14 13:42:45;;;;;;;18.40;13.00;;;;;;;13.36;73.68;101311.94;5567793;32;34744;-56
2022/11/14 13:46:31;;;;;;;15.20;11.07;;;;;;;13.40;75.50;101313.81;5564985;32;35517;-56
2022/11/14 13:49:59;;;;;;;14.75;11.07;;;;;;;13.38;72.11;101302.53;5564176;32;34583;-56
2022/11/14 13:53:23;;;;;;;14.87;12.10;;;;;;;13.45;72.24;101301.41;5559067;32;35390;-55
2022/11/14 13:56:53;;;;;;;17.10;11.80;;;;;;;13.46;69.91;101308.41;5569500;32;35454;-56
2022/11/14 14:00:16;;;;;;;18.23;12.40;;;;;;;13.40;73.17;101304.94;5569904;32;34495;-56
2022/11/14 14:04:14;;;;;;;21.73;14.13;;;;;;;13.29;69.98;101295.28;5559842;32;35377;-55
2022/11/14 14:08:06;;;;;;;17.17;12.75;;;;;;;13.28;75.92;101294.50;5559379;32;34601;-55
2022/11/14 14:11:41;;;;;;;19.37;13.88;;;;;;;13.34;73.71;101292.56;5569820;32;34492;-56
2022/11/14 14:15:08;;;;;;;;;;;;;;;13.39;72.65;101293.34;5550382;32;35459;-57
2022/11/14 14:18:58;;;;;;;19.62;14.27;;;;;;;13.11;73.88;101297.47;5566605;32;34837;-55
2022/11/14 14:22:34;;;;;;;20.42;14.95;;;;;;;13.10;69.76;101295.84;5569252;32;34514;-56
2022/11/14 14:26:06;;;;;;;20.17;15.32;;;;;;;12.91;72.93;101289.44;5563996;32;34516;-55
2022/11/14 14:29:51;;;;;;;23.73;19.20;;;;;;;12.78;71.69;101282.78;5568901;32;35216;-56
2022/11/14 14:33:13;;;;;;;34.25;24.73;;;;;;;12.75;72.12;101294.09;5554029;32;34483;-55
2022/11/14 14:36:34;;;;;;;28.55;21.35;;;;;;;12.76;74.62;101281.44;5567226;32;34582;-55
2022/11/14 14:40:04;;;;;;;27.65;18.17;;;;;;;12.65;72.21;101281.44;5563321;32;33054;-55
2022/11/14 14:43:34;;;;;;;30.37;19.58;;;;;;;12.57;73.43;101282.00;5563803;32;34218;-55
2022/11/14 14:46:54;;;;;;;25.12;18.77;;;;;;;12.51;75.32;101280.38;5569613;32;34449;-55
2022/11/14 14:50:33;;;;;;;29.25;18.30;;;;;;;12.53;78.99;101280.13;5559944;32;35472;-56
2022/11/14 14:53:54;;;;;;;36.63;20.95;;;;;;;12.49;75.17;101287.13;5559422;32;34275;-56
2022/11/14 14:57:18;;;;;;;29.12;19.52;;;;;;;12.51;77.66;101279.56;5568735;32;34577;-55
2022/11/14 15:01:10;;;;;;;38.13;25.65;;;;;;;12.40;76.98;101271.53;5569575;32;35419;-56
2022/11/14 15:04:36;;;;;;;24.98;18.08;;;;;;;12.35;74.13;101268.84;5564418;32;34670;-55
2022/11/14 15:08:00;;;;;;;29.65;17.35;;;;;;;12.28;74.74;101272.88;5567058;32;34618;-56
2022/11/14 15:11:22;;;;;;;24.20;16.17;;;;;;;12.17;74.60;101270.19;5566027;32;34525;-55
2022/11/14 15:14:42;;;;;;;23.98;17.08;;;;;;;12.06;75.71;101265.88;5569372;32;35434;-56
2022/11/14 15:18:06;;;;;;;25.40;16.35;;;;;;;12.06;75.42;101260.50;5569597;32;34527;-55
2022/11/14 15:21:28;;;;;;;27.15;16.80;;;;;;;11.95;75.94;101265.09;5568095;32;34509;-55
2022/11/14 15:25:10;;;;;;;30.95;16.77;;;;;;;11.92;76.50;101262.09;5568655;32;35493;-56
2022/11/14 15:28:31;;;;;;;27.30;17.75;;;;;;;11.74;76.48;101266.09;5568243;32;35409;-56
2022/11/14 15:31:59;;;;;;;38.97;17.20;;;;;;;11.65;75.99;101265.78;5549641;32;35520;-55
2022/11/14 15:35:30;;;;;;;26.08;18.70;;;;;;;11.52;76.38;101269.81;5549909;32;34554;-55
2022/11/14 15:39:24;;;;;;;22.42;17.55;;;;;;;11.51;76.68;101262.81;5565070;32;34521;-55
2022/11/14 15:42:45;;;;;;;25.42;18.05;;;;;;;11.40;77.43;101258.50;5563896;32;34581;-55
2022/11/14 15:46:39;;;;;;;22.87;17.02;;;;;;;11.34;76.87;101262.22;5569490;32;34551;-55
2022/11/14 15:50:20;;;;;;;26.30;17.37;;;;;;;11.22;82.47;101259.75;5562057;32;35500;-55
2022/11/14 15:53:44;;;;;;;23.85;17.17;;;;;;;11.01;83.88;101264.22;5569084;32;35329;-55
2022/11/14 15:57:12;;;;;;;25.15;19.17;;;;;;;10.83;83.23;101259.31;5569294;32;35339;-55
2022/11/14 16:00:33;;;;;;;28.58;17.98;;;;;;;10.87;81.21;101263.09;5568470;32;35409;-55
2022/11/14 16:03:53;;;;;;;25.42;16.87;;;;;;;11.00;79.65;101268.00;5554167;32;35328;-55
2022/11/14 16:07:15;;;;;;;27.20;17.92;;;;;;;10.93;79.77;101269.31;5549170;32;34601;-55
2022/11/14 16:10:36;;;;;;;32.28;19.45;;;;;;;10.73;87.08;101268.13;5556093;32;34638;-56
2022/11/14 16:13:57;;;;;;;32.17;20.37;;;;;;;10.60;86.95;101268.56;5569377;32;34582;-55
2022/11/14 16:17:17;;;;;;;30.48;22.00;;;;;;;10.67;81.70;101263.78;5568872;32;34729;-56
2022/11/14 16:20:38;;;;;;;34.92;25.88;;;;;;;10.74;82.19;101274.28;5567251;31;34978;-56
2022/11/14 16:24:00;;;;;;;44.45;36.60;;;;;;;10.76;81.47;101277.50;5569353;32;34557;-55
2022/11/14 16:27:20;;;;;;;41.35;28.90;;;;;;;10.71;86.98;101272.13;5568604;32;35439;-57
2022/11/14 16:30:41;;;;;;;33.75;25.90;;;;;;;10.62;82.46;101271.78;5567272;32;35445;-55
2022/11/14 16:34:01;;;;;;;32.88;23.05;;;;;;;10.56;84.50;101272.81;5565026;32;34596;-56
2022/11/14 16:37:24;;;;;;;36.28;24.87;;;;;;;10.59;83.81;101274.97;5561711;32;35480;-55
2022/11/14 16:40:44;;;;;;;36.58;24.17;;;;;;;10.53;82.98;101273.34;5565935;32;34614;-55
2022/11/14 16:44:05;;;;;;;30.45;24.02;;;;;;;10.37;85.26;101277.00;5567340;31;34622;-56
2022/11/14 16:47:26;;;;;;;31.85;22.10;;;;;;;10.38;86.47;101274.03;5564664;31;34503;-55
